ADDS METAR Data INFO
IDs: Format: Raw Decoded Include TAF

Data at: 1132 UTC 29 May 2017

KSLR 291115Z AUTO 01004KT 10SM CLR 20/18 A3000 RMK AO2 T01950184
KSLR 291055Z AUTO 00000KT 10SM CLR 20/19 A3000 RMK AO2 T01960187
KSLR 291035Z AUTO 36003KT 10SM CLR 20/19 A2999 RMK AO2 T01970188
KSLR 291015Z AUTO 00000KT 10SM CLR 20/19 A2999 RMK AO2 T02000193
KSLR 290955Z AUTO 00000KT 10SM CLR 20/20 A2999 RMK AO2 T02030199
KSLR 290935Z AUTO 00000KT 10SM CLR 21/20 A3000 RMK AO2 T02050201
KSLR 290915Z AUTO 01003KT 10SM CLR 21/21 A3000 RMK AO2 T02070205
KSLR 290855Z AUTO 34004KT 7SM CLR 21/21 A2999 RMK AO2 LTG DSNT SE T02100210
KSLR 290835Z AUTO 00000KT 4SM BR CLR 21/21 A2999 RMK AO2 T02090208
KSLR 290815Z AUTO 00000KT 5SM BR SCT010 SCT022 SCT055 21/21 A3000 RMK AO2 T02100210
KSLR 290755Z AUTO 23003KT 5SM BR BKN008 BKN055 21/21 A3002 RMK AO2 T02120210
KSLR 290735Z AUTO 00000KT 7SM SCT006 SCT043 BKN055 21/21 A3003 RMK AO2 T02140212
KSLR 290715Z AUTO 00000KT 7SM SCT060 SCT070 22/22 A3004 RMK AO2 T02150215
KSLR 290655Z AUTO 31003KT 7SM SCT050 SCT060 21/21 A3004 RMK AO2 T02140212
KSLR 290635Z AUTO 00000KT 7SM OVC050 22/21 A3005 RMK AO2 T02150213
KSLR 290615Z AUTO 23004KT 7SM OVC050 21/21 A3004 RMK AO2 T02130212
KSLR 290555Z AUTO 00000KT 7SM SCT044 BKN050 21/21 A3004 RMK AO2 T02120211 10243 20211 402750200
KSLR 290535Z AUTO 00000KT 7SM SCT044 SCT050 21/21 A3004 RMK AO2 T02120210
KSLR 290515Z AUTO 36003KT 5SM BR CLR 22/21 A3004 RMK AO2 LTG DSNT S T02150211
KSLR 290455Z AUTO 00000KT 7SM SCT042 22/22 A3004 RMK AO2 LTG DSNT S T02180215
KSLR 290435Z AUTO 00000KT 7SM SCT038 22/22 A3003 RMK AO2 LTG DSNT SE T02180215
KSLR 290415Z AUTO 00000KT 7SM SCT038 SCT043 22/22 A3003 RMK AO2 LTG DSNT S T02190215
KSLR 290355Z AUTO 00000KT 10SM SCT037 SCT043 22/22 A3002 RMK AO2 T02210216
KSLR 290335Z AUTO 00000KT 10SM SCT037 SCT043 22/22 A3002 RMK AO2 LTG DSNT S T02210216
KSLR 290315Z AUTO 00000KT 10SM SCT037 22/22 A3001 RMK AO2 LTG DSNT SE T02210215
KSLR 290255Z AUTO 00000KT 10SM CLR 22/22 A3000 RMK AO2 LTG DSNT SE AND S T02210215
KSLR 290235Z AUTO 00000KT 10SM CLR 23/22 A2998 RMK AO2 T02250217
KSLR 290215Z AUTO 00000KT 10SM CLR 23/22 A2996 RMK AO2 T02250216
KSLR 290155Z AUTO 11004KT 10SM CLR 23/22 A2996 RMK AO2 LTG DSNT S T02270216
KSLR 290135Z AUTO 07003KT 10SM CLR 23/22 A2994 RMK AO2 LTG DSNT SE T02310216
KSLR 290115Z AUTO 02003KT 10SM SCT050 24/22 A2992 RMK AO2 T02350217
KSLR 290055Z AUTO 03004KT 10SM BKN050 24/21 A2994 RMK AO2 LTG DSNT SE T02400212
KSLR 290035Z AUTO 10003KT 10SM OVC050 24/21 A2996 RMK AO2 LTG DSNT S T02430213
KSLR 290015Z AUTO 00000KT 10SM OVC045 24/21 A2995 RMK AO2 LTG DSNT SE AND S T02410213
KSLR 282355Z AUTO 05003KT 10SM SCT036 OVC043 24/21 A2994 RMK AO2 LTG DSNT SE 60001 T02410212 10260 20228
KSLR 282335Z AUTO 06003KT 10SM BKN036 OVC041 24/21 A2993 RMK AO2 LTG DSNT SE AND S T02400209
KSLR 282315Z AUTO 05003KT 7SM BKN037 OVC050 24/21 A2992 RMK AO2 LTG DSNT E AND SE T02400212
KSLR 282255Z AUTO 01010KT 10SM OVC031 24/22 A2989 RMK AO2 LTG DSNT E THRU S P0001 T02350219
KSLR 282235Z AUTO 33007KT 10SM OVC029 23/21 A2996 RMK AO2 LTG DSNT E THRU S P0001 T02280214
KSLR 282215Z AUTO 35005KT 7SM DZ BKN022 OVC028 23/21 A2995 RMK AO2 LTG DSNT E THRU S P0001 T02300211
KSLR 282155Z AUTO 34006KT 10SM VCTS SCT019 OVC025 23/21 A2998 RMK AO2 LTG DSNT SE THRU SW T02310210
KSLR 282135Z AUTO 34008KT 10SM TS SCT018 BKN023 OVC033 23/21 A2997 RMK AO2 LTG DSNT SE THRU SW T02320210
KSLR 282115Z AUTO 33007KT 10SM -VCTSDZ SCT023 OVC033 23/21 A2996 RMK AO2 LTG DSNT ALQS T02330206
KSLR 282055Z AUTO 12007KT 10SM TS BKN033 23/20 A2995 RMK AO2 LTG DSNT ALQS T02310202
KSLR 282035Z AUTO 35009KT 10SM TS OVC033 24/20 A2997 RMK AO2 LTG DSNT ALQS T02360201
KSLR 282015Z AUTO 34011KT 10SM -TSRA OVC033 24/20 A2999 RMK AO2 LTG DSNT ALQS T02430204
KSLR 281955Z AUTO 33007KT 10SM VCTS OVC035 25/20 A3000 RMK AO2 LTG DSNT W THRU N T02530200
KSLR 281935Z AUTO 01005KT 10SM OVC039 26/19 A2999 RMK AO2 LTG DSNT W T02590192
KSLR 281915Z AUTO 36003KT 10SM OVC039 26/19 A2999 RMK AO2 LTG DSNT W T02560192
KSLR 281855Z AUTO 34005KT 10SM OVC037 25/19 A3000 RMK AO2 T02510191
KSLR 281835Z AUTO 00000KT 10SM BKN039 OVC048 25/19 A2999 RMK AO2 T02520189
KSLR 281815Z AUTO 16004KT 10SM OVC039 25/19 A2999 RMK AO2 T02490186
KSLR 281755Z AUTO 13006KT 10SM BKN039 26/19 A3000 RMK AO2 T02550190 10255 20202
KSLR 281735Z AUTO 17005KT 10SM SCT041 SCT047 24/19 A2999 RMK AO2 T02430188
KSLR 281715Z AUTO 14006KT 10SM SCT015 BKN044 BKN050 24/19 A3000 RMK AO2 T02370187
KSLR 281655Z AUTO 15004KT 10SM SCT015 BKN042 OVC050 23/19 A3001 RMK AO2 T02260189
KSLR 281635Z AUTO 12004KT 10SM SCT013 BKN040 OVC050 23/19 A3001 RMK AO2 T02280194
KSLR 281615Z AUTO 11003KT 10SM SCT017 SCT022 OVC038 22/19 A3002 RMK AO2 T02170191
KSLR 281555Z AUTO 12004KT 10SM SCT012 BKN017 OVC022 21/19 A3002 RMK AO2 T02140190
KSLR 281535Z AUTO 14003KT 10SM OVC010 21/19 A3001 RMK AO2 T02130191
KSLR 281515Z AUTO 14006KT 10SM OVC008 21/20 A3000 RMK AO2 T02130196
KSLR 281455Z AUTO 15009KT 10SM OVC008 21/20 A2999 RMK AO2 LTG DSNT SE T02070196
KSLR 281435Z AUTO 16012KT 10SM OVC008 21/20 A2999 RMK AO2 LTG DSNT SE THRU SW T02060195
KSLR 281415Z AUTO 14006KT 10SM BKN007 OVC011 21/20 A2999 RMK AO2 LTG DSNT SE AND S T02110203
KSLR 281355Z AUTO 15003KT 10SM OVC011 21/20 A2998 RMK AO2 LTG DSNT E THRU S T02100202
KSLR 281335Z AUTO 14003KT 10SM BKN013 OVC040 21/20 A2998 RMK AO2 LTG DSNT E AND S T02070202
KSLR 281315Z AUTO 13004KT 7SM SCT015 OVC038 21/20 A2996 RMK AO2 LTG DSNT SE T02050200
KSLR 281255Z AUTO 13003KT 7SM -RA SCT008 OVC040 21/20 A2996 RMK AO2 LTG DSNT E THRU S T02050200
KSLR 281235Z AUTO 00000KT 10SM -VCTSRA BKN008 BKN011 OVC050 21/20 A2996 RMK AO2 LTG DSNT E AND SE T02050198
KSLR 281215Z AUTO 00000KT 10SM TS SCT008 SCT024 OVC050 20/20 A2995 RMK AO2 LTG DSNT E THRU S T02030198
KSLR 281155Z AUTO 19011KT 10SM VCTS SCT024 BKN060 OVC085 20/20 A2994 RMK AO2 LTG DSNT E THRU SW P0011 60081 70081 T02030198 10275 20200
KSLR 281135Z AUTO 20009KT 10SM -TSRA SCT019 BKN080 OVC085 20/20 A2990 RMK AO2 LTG DSNT ALQS P0011 T02020197
KSLR 281115Z AUTO 21008KT 3SM -TSRA SCT015 BKN044 OVC100 20/20 A2989 RMK AO2 LTG DSNT ALQS P0011 T02010195
KSLR 281055Z AUTO 20006KT 3SM +TSRA SCT030 BKN039 OVC070 20/19 A2987 RMK AO2 LTG DSNT ALQS P0059 T02010194
KSLR 281035Z AUTO 21010KT 5SM +TSRA SCT028 BKN039 OVC070 20/20 A2989 RMK AO2 LTG DSNT ALQS P0035 T02010195
KSLR 281015Z AUTO 23012KT 4SM +TSRA SCT030 SCT038 OVC070 20/19 A2993 RMK AO2 LTG DSNT ALQS P0012 T02020192
KSLR 280955Z AUTO 20004KT 10SM -VCTSRA SCT050 OVC070 20/19 A2989 RMK AO2 LTG DSNT ALQS P0009 T02010193
KSLR 280935Z AUTO 00000KT 7SM TSRA SCT010 BKN049 OVC055 20/19 A2989 RMK AO2 LTG DSNT ALQS P0007 T02010191
KSLR 280915Z AUTO 35008KT 7SM -TSRA SCT010 BKN042 OVC055 20/19 A2992 RMK AO2 LTG DSNT ALQS P0003 T02030191
KSLR 280855Z AUTO 36017G23KT 10SM -VCTSRA OVC040 22/18 A2991 RMK AO2 LTG DSNT ALQS T02160180
KSLR 280835Z AUTO 01013G19KT 10SM OVC038 22/18 A2989 RMK AO2 LTG DSNT ALQS T02200175
KSLR 280815Z AUTO 02017G21KT 10SM BKN036 OVC043 24/16 A2989 RMK AO2 LTG DSNT ALQS T02400162
KSLR 280755Z AUTO 04014G19KT 10SM VCTS BKN034 OVC042 24/17 A2986 RMK AO2 LTG DSNT ALQS T02440168
KSLR 280735Z AUTO 02021G24KT 10SM TS BKN034 BKN040 OVC055 26/20 A2986 RMK AO2 LTG DSNT N E AND SW T02570200
KSLR 280715Z AUTO 01010KT 10SM TS BKN055 27/22 A2986 RMK AO2 LTG DSNT ALQS T02700216
KSLR 280655Z AUTO 21007KT 170V230 10SM CLR 27/21 A2981 RMK AO2 LTG DSNT N AND NE T02720210
KSLR 280635Z AUTO 19008KT 10SM CLR 27/22 A2980 RMK AO2 LTG DSNT N AND NE T02730215
KSLR 280615Z AUTO 20007KT 10SM CLR 27/22 A2980 RMK AO2 T02720222
KSLR 280555Z AUTO 19009KT 10SM CLR 27/23 A2979 RMK AO2 LTG DSNT NE T02740228 10296 20273 403010253
KSLR 280535Z AUTO 19010G14KT 7SM CLR 28/23 A2979 RMK AO2 LTG DSNT N T02750232
KSLR 280515Z AUTO 19012G18KT 7SM CLR 28/24 A2978 RMK AO2 LTG DSNT N AND NW T02750235
KSLR 280455Z AUTO 19010G15KT 7SM CLR 28/24 A2979 RMK AO2 LTG DSNT N T02770235
KSLR 280435Z AUTO 19009KT 7SM CLR 28/23 A2979 RMK AO2 T02800232
KSLR 280415Z AUTO 18008KT 10SM CLR 28/23 A2980 RMK AO2 T02820231
KSLR 280355Z AUTO 18009G14KT 10SM CLR 29/23 A2979 RMK AO2 T02850231
KSLR 280335Z AUTO 19009G14KT 7SM CLR 29/23 A2980 RMK AO2 T02860232
KSLR 280315Z AUTO 18009KT 7SM SCT055 29/24 A2979 RMK AO2 T02850235
KSLR 280255Z AUTO 18009KT 7SM BKN055 28/24 A2978 RMK AO2 T02830239
KSLR 280235Z AUTO 18007KT 7SM OVC055 28/24 A2979 RMK AO2 LTG DSNT N T02840241
KSLR 280215Z AUTO 18006KT 7SM BKN055 29/24 A2979 RMK AO2 LTG DSNT N T02860242
KSLR 280155Z AUTO 17007KT 5SM HZ OVC055 29/24 A2980 RMK AO2 T02860243
KSLR 280135Z AUTO 16005KT 4SM HZ BKN055 29/24 A2979 RMK AO2 T02870244
KSLR 280115Z AUTO 17006KT 4SM HZ CLR 29/25 A2978 RMK AO2 T02880245
KSLR 280055Z AUTO 16007KT 4SM HZ SCT044 SCT050 29/25 A2978 RMK AO2 T02900245
KSLR 280035Z AUTO 17006KT 4SM HZ BKN050 30/25 A2979 RMK AO2 T02960245
KSLR 280015Z AUTO 17005KT 4SM HZ BKN045 OVC050 30/24 A2980 RMK AO2 T02950244
KSLR 272355Z AUTO 16005KT 4SM HZ OVC043 30/24 A2981 RMK AO2 T02950243 10300 20272
KSLR 272335Z AUTO 18008KT 4SM HZ OVC043 30/24 A2981 RMK AO2 T02960242


Page loaded:  11:32 UTC  |   04:32 AM Pacific  |   05:32 AM Mountain  |   06:32 AM Central  |   07:32 AM Eastern

 

ADVISORIES

FORECASTS

FORECASTS

OBSERVATIONS

USER TOOLS

ABOUT US